Time;durP1;ratioP1;P1;durP2;ratioP2;P2;SDS_P1;SDS_P2;PMS_P1;PMS_P2;Temp;Humidity;BMP_temperature;BMP_pressure;BME280_temperature;BME280_humidity;BME280_pressure;Samples;Min_cycle;Max_cycle;Signal;HPM_P1;HPM_P2
2023/10/12 00:01:58;;;;;;;0.20;0.20;;;;;;;;;;4971409;28;20078;-94
2023/10/12 00:04:24;;;;;;;0.28;0.28;;;;;;;;;;4971666;28;20452;-93
2023/10/12 00:06:51;;;;;;;0.17;0.17;;;;;;;;;;4972654;28;20049;-95
2023/10/12 00:09:20;;;;;;;0.20;0.20;;;;;;;;;;4984063;28;20103;-93
2023/10/12 00:11:55;;;;;;;0.10;0.10;;;;;;;;;;4971390;28;20034;-93
2023/10/12 00:14:28;;;;;;;0.20;0.20;;;;;;;;;;4970552;28;20042;-91
2023/10/12 00:16:55;;;;;;;0.10;0.10;;;;;;;;;;4970249;28;20039;-92
2023/10/12 00:19:23;;;;;;;0.10;0.10;;;;;;;;;;4969941;28;20058;-92
2023/10/12 00:21:49;;;;;;;0.10;0.10;;;;;;;;;;4970141;28;20046;-92
2023/10/12 00:24:17;;;;;;;0.10;0.10;;;;;;;;;;4970231;28;20046;-93
2023/10/12 00:26:43;;;;;;;0.10;0.10;;;;;;;;;;4971876;28;20038;-94
2023/10/12 00:29:10;;;;;;;0.30;0.30;;;;;;;;;;4976271;28;20038;-94
2023/10/12 00:31:39;;;;;;;0.17;0.17;;;;;;;;;;4990634;28;20049;-93
2023/10/12 00:34:05;;;;;;;0.10;0.10;;;;;;;;;;4990893;28;20034;-94
2023/10/12 00:36:36;;;;;;;0.20;0.20;;;;;;;;;;4987415;28;20073;-94
2023/10/12 00:39:09;;;;;;;0.13;0.13;;;;;;;;;;4960000;28;20077;-94
2023/10/12 00:41:36;;;;;;;0.40;0.40;;;;;;;;;;4989855;28;20050;-94
2023/10/12 00:44:10;;;;;;;0.20;0.20;;;;;;;;;;4973216;28;20069;-94
2023/10/12 00:49:22;;;;;;;0.28;0.28;;;;;;;;;;4985557;28;20046;-95
2023/10/12 00:51:51;;;;;;;0.20;0.20;;;;;;;;;;4970918;28;20043;-95
2023/10/12 00:54:28;;;;;;;0.10;0.10;;;;;;;;;;4971698;28;20038;-95
2023/10/12 00:57:01;;;;;;;0.10;0.10;;;;;;;;;;4971736;28;20050;-96
2023/10/12 00:59:31;;;;;;;0.20;0.20;;;;;;;;;;4978133;28;20037;-95
2023/10/12 01:01:57;;;;;;;0.20;0.20;;;;;;;;;;4989966;28;20066;-96
2023/10/12 01:04:23;;;;;;;0.10;0.10;;;;;;;;;;4990346;28;20034;-96
2023/10/12 01:06:49;;;;;;;0.20;0.20;;;;;;;;;;4957273;28;20471;-95
2023/10/12 01:09:19;;;;;;;0.20;0.20;;;;;;;;;;4988192;28;20046;-95
2023/10/12 01:11:51;;;;;;;0.30;0.30;;;;;;;;;;4990014;28;20057;-96
2023/10/12 01:14:18;;;;;;;0.20;0.20;;;;;;;;;;4989553;28;20044;-96
2023/10/12 01:19:30;;;;;;;0.20;0.20;;;;;;;;;;4990071;28;20072;-95
2023/10/12 01:21:58;;;;;;;0.20;0.20;;;;;;;;;;4970143;28;20106;-95
2023/10/12 01:24:29;;;;;;;0.15;0.15;;;;;;;;;;4970807;28;20046;-95
2023/10/12 01:26:56;;;;;;;0.30;0.30;;;;;;;;;;4970483;28;20536;-95
2023/10/12 01:29:22;;;;;;;0.20;0.20;;;;;;;;;;4984174;28;20052;-95
2023/10/12 01:34:37;;;;;;;0.28;0.28;;;;;;;;;;4971251;28;20093;-94
2023/10/12 01:37:21;;;;;;;0.20;0.20;;;;;;;;;;4982887;28;20085;-94
2023/10/12 02:10:41;;;;;;;0.10;0.10;;;;;;;;;;4909874;29;20048;-94
2023/10/12 02:13:10;;;;;;;0.10;0.10;;;;;;;;;;4929965;28;20058;-94
2023/10/12 02:15:37;;;;;;;0.10;0.10;;;;;;;;;;4972901;28;20049;-94
2023/10/12 02:18:10;;;;;;;0.10;0.10;;;;;;;;;;4980523;28;20105;-93
2023/10/12 02:20:42;;;;;;;0.13;0.13;;;;;;;;;;4967705;28;20066;-93
2023/10/12 02:23:11;;;;;;;0.30;0.30;;;;;;;;;;4959956;28;20067;-94
2023/10/12 02:25:50;;;;;;;0.20;0.20;;;;;;;;;;4965679;28;20038;-93
2023/10/12 02:28:22;;;;;;;0.22;0.22;;;;;;;;;;4994681;28;20061;-93
2023/10/12 02:30:54;;;;;;;0.22;0.22;;;;;;;;;;4974937;28;20039;-94
2023/10/12 02:33:27;;;;;;;0.20;0.20;;;;;;;;;;4991750;28;20069;-95
2023/10/12 02:35:54;;;;;;;0.10;0.10;;;;;;;;;;4995669;28;20034;-93
2023/10/12 02:38:21;;;;;;;0.30;0.30;;;;;;;;;;4995467;28;20069;-94
2023/10/12 02:40:57;;;;;;;0.20;0.20;;;;;;;;;;4995834;28;20066;-94
2023/10/12 02:43:27;;;;;;;0.20;0.20;;;;;;;;;;4995707;28;20126;-94
2023/10/12 02:45:53;;;;;;;0.10;0.10;;;;;;;;;;4995504;28;20086;-94
2023/10/12 02:48:26;;;;;;;0.10;0.10;;;;;;;;;;4995188;28;20106;-94
2023/10/12 02:50:57;;;;;;;0.20;0.20;;;;;;;;;;4991945;28;20522;-94
2023/10/12 02:53:34;;;;;;;0.20;0.20;;;;;;;;;;4975388;28;20111;-94
2023/10/12 02:56:04;;;;;;;0.20;0.20;;;;;;;;;;4976635;28;20134;-94
2023/10/12 02:58:32;;;;;;;0.20;0.20;;;;;;;;;;4975723;28;20102;-94
2023/10/12 03:01:12;;;;;;;0.20;0.20;;;;;;;;;;4990534;28;20138;-93
2023/10/12 03:03:39;;;;;;;0.10;0.10;;;;;;;;;;4992852;28;20054;-93
2023/10/12 03:06:12;;;;;;;0.10;0.10;;;;;;;;;;4992916;28;20106;-94
2023/10/12 03:11:25;;;;;;;0.20;0.20;;;;;;;;;;4991139;28;20051;-94
2023/10/12 03:14:12;;;;;;;0.20;0.20;;;;;;;;;;4990549;28;20042;-94
2023/10/12 03:16:42;;;;;;;0.20;0.20;;;;;;;;;;4975778;28;20049;-94
2023/10/12 03:19:18;;;;;;;0.20;0.20;;;;;;;;;;4972644;28;20110;-94
2023/10/12 03:21:47;;;;;;;0.10;0.10;;;;;;;;;;4991472;28;20081;-95
2023/10/12 03:24:16;;;;;;;0.30;0.30;;;;;;;;;;4982966;28;20121;-94
2023/10/12 03:26:49;;;;;;;0.40;0.40;;;;;;;;;;4972115;28;20047;-95
2023/10/12 03:29:20;;;;;;;0.10;0.10;;;;;;;;;;4974599;28;20043;-95
2023/10/12 03:37:04;;;;;;;0.28;0.28;;;;;;;;;;4972425;28;20066;-94
2023/10/12 03:42:42;;;;;;;0.20;0.20;;;;;;;;;;4972000;28;20042;-94
2023/10/12 03:48:04;;;;;;;0.30;0.30;;;;;;;;;;4972147;28;20038;-94
2023/10/12 03:50:57;;;;;;;0.28;0.28;;;;;;;;;;4986814;28;20046;-95
2023/10/12 03:53:20;;;;;;;0.20;0.20;;;;;;;;;;4991998;28;20050;-93
2023/10/12 03:55:49;;;;;;;0.28;0.28;;;;;;;;;;4991492;28;20074;-94
2023/10/12 03:58:23;;;;;;;0.10;0.10;;;;;;;;;;4981559;28;20039;-94
2023/10/12 04:01:06;;;;;;;0.30;0.30;;;;;;;;;;4972455;28;20046;-95
2023/10/12 04:03:37;;;;;;;0.10;0.10;;;;;;;;;;4987999;28;20583;-94
2023/10/12 04:06:23;;;;;;;0.10;0.10;;;;;;;;;;4991843;28;20053;-94
2023/10/12 04:08:54;;;;;;;0.20;0.20;;;;;;;;;;4991050;28;20057;-94
2023/10/12 04:11:47;;;;;;;0.13;0.13;;;;;;;;;;4972463;28;20046;-94
2023/10/12 04:17:07;;;;;;;0.20;0.20;;;;;;;;;;4972117;28;20039;-94
2023/10/12 04:19:34;;;;;;;0.15;0.15;;;;;;;;;;4971793;28;20062;-95
2023/10/12 04:24:48;;;;;;;0.10;0.10;;;;;;;;;;4970427;28;20055;-94
2023/10/12 04:29:50;;;;;;;0.20;0.20;;;;;;;;;;4983554;28;20050;-94
2023/10/12 04:32:27;;;;;;;0.22;0.22;;;;;;;;;;4988241;28;20086;-94
2023/10/12 04:34:54;;;;;;;0.17;0.17;;;;;;;;;;4990631;28;20033;-94
2023/10/12 04:37:27;;;;;;;0.20;0.20;;;;;;;;;;4989587;28;20089;-95
2023/10/12 04:40:16;;;;;;;0.20;0.20;;;;;;;;;;4990344;28;20061;-94
2023/10/12 04:42:45;;;;;;;0.22;0.22;;;;;;;;;;4989776;28;20046;-93
2023/10/12 04:47:46;;;;;;;;;;;;;;;;;;4989944;28;20117;-93
2023/10/12 04:50:27;;;;;;;0.30;0.30;;;;;;;;;;4962588;28;19937;-94
2023/10/12 04:53:09;;;;;;;0.30;0.30;;;;;;;;;;4970501;28;20039;-93
2023/10/12 04:55:35;;;;;;;0.30;0.30;;;;;;;;;;4970102;28;20035;-94
2023/10/12 04:58:31;;;;;;;0.30;0.30;;;;;;;;;;4987445;28;20069;-94
2023/10/12 05:01:12;;;;;;;;;;;;;;;;;;4988405;28;20049;-93
2023/10/12 05:03:41;;;;;;;0.20;0.20;;;;;;;;;;4972923;28;19939;-94
2023/10/12 05:06:09;;;;;;;0.17;0.17;;;;;;;;;;4989108;28;20050;-93
2023/10/12 05:08:35;;;;;;;0.20;0.20;;;;;;;;;;4988826;28;20046;-93
2023/10/12 05:11:02;;;;;;;0.20;0.20;;;;;;;;;;4989364;28;20066;-93
2023/10/12 05:13:28;;;;;;;0.30;0.30;;;;;;;;;;4988627;28;20082;-95
2023/10/12 05:15:54;;;;;;;0.22;0.22;;;;;;;;;;4988072;28;20043;-93
2023/10/12 05:18:21;;;;;;;0.17;0.17;;;;;;;;;;4988327;28;20046;-93
2023/10/12 05:20:47;;;;;;;0.20;0.20;;;;;;;;;;4987390;28;20130;-92
2023/10/12 05:23:13;;;;;;;0.20;0.20;;;;;;;;;;4988019;28;20046;-93
2023/10/12 05:28:19;;;;;;;0.20;0.20;;;;;;;;;;4988590;28;20503;-94
2023/10/12 05:30:59;;;;;;;0.20;0.20;;;;;;;;;;4988625;28;20106;-94
2023/10/12 05:33:59;;;;;;;0.10;0.10;;;;;;;;;;4986958;28;20475;-93
2023/10/12 05:36:15;;;;;;;0.30;0.30;;;;;;;;;;4987297;28;20046;-92
2023/10/12 05:38:51;;;;;;;0.20;0.20;;;;;;;;;;4987057;28;20038;-92
2023/10/12 05:43:56;;;;;;;0.20;0.20;;;;;;;;;;4989444;28;20047;-93
2023/10/12 05:46:23;;;;;;;0.20;0.20;;;;;;;;;;4990743;28;20143;-92
2023/10/12 05:48:52;;;;;;;0.20;0.20;;;;;;;;;;4983899;28;20043;-94
2023/10/12 05:51:21;;;;;;;0.20;0.20;;;;;;;;;;4971049;28;20050;-93
2023/10/12 05:53:49;;;;;;;0.20;0.20;;;;;;;;;;4970987;28;20038;-93
2023/10/12 05:56:18;;;;;;;0.20;0.20;;;;;;;;;;4969677;28;20034;-93
2023/10/12 05:58:44;;;;;;;0.20;0.20;;;;;;;;;;4972395;28;20085;-93
2023/10/12 06:01:15;;;;;;;0.30;0.30;;;;;;;;;;4970431;28;20102;-93
2023/10/12 06:03:46;;;;;;;0.20;0.20;;;;;;;;;;4970058;28;20043;-94
2023/10/12 06:06:12;;;;;;;0.10;0.10;;;;;;;;;;4971320;28;20055;-93
2023/10/12 06:08:40;;;;;;;0.20;0.20;;;;;;;;;;4940335;28;20066;-93
2023/10/12 06:11:10;;;;;;;0.20;0.20;;;;;;;;;;4971637;28;20039;-93
2023/10/12 06:13:42;;;;;;;0.30;0.30;;;;;;;;;;4971208;28;20042;-93
2023/10/12 06:16:20;;;;;;;0.22;0.22;;;;;;;;;;4971342;28;20042;-93
2023/10/12 06:18:46;;;;;;;0.40;0.40;;;;;;;;;;4971461;28;20046;-93
2023/10/12 06:21:19;;;;;;;0.20;0.20;;;;;;;;;;4971337;28;20047;-93
2023/10/12 06:23:50;;;;;;;0.10;0.10;;;;;;;;;;4988279;28;20503;-94
2023/10/12 06:26:29;;;;;;;0.20;0.20;;;;;;;;;;4989935;28;20050;-93
2023/10/12 06:28:56;;;;;;;0.10;0.10;;;;;;;;;;4990286;28;20113;-92
2023/10/12 06:31:22;;;;;;;0.10;0.10;;;;;;;;;;4977985;28;20107;-93
2023/10/12 06:33:49;;;;;;;0.30;0.30;;;;;;;;;;4956413;28;20094;-94
2023/10/12 06:36:22;;;;;;;0.10;0.10;;;;;;;;;;4982170;28;20039;-94
2023/10/12 06:46:48;;;;;;;0.22;0.22;;;;;;;;;;4993589;28;20054;-94
2023/10/12 06:49:32;;;;;;;0.20;0.20;;;;;;;;;;4992972;28;20038;-92
2023/10/12 06:52:13;;;;;;;0.10;0.10;;;;;;;;;;4982082;28;20038;-96
2023/10/12 06:54:59;;;;;;;0.28;0.28;;;;;;;;;;4981087;28;20045;-96
2023/10/12 06:57:44;;;;;;;0.20;0.20;;;;;;;;;;4998184;28;20114;-96
2023/10/12 07:00:20;;;;;;;0.30;0.30;;;;;;;;;;4984110;28;20033;-96
2023/10/12 07:02:57;;;;;;;0.30;0.30;;;;;;;;;;4978505;28;20046;-94
2023/10/12 07:05:38;;;;;;;0.10;0.10;;;;;;;;;;4979841;28;20094;-96
2023/10/12 07:08:15;;;;;;;0.22;0.22;;;;;;;;;;4979567;28;20042;-96
2023/10/12 07:10:52;;;;;;;0.20;0.20;;;;;;;;;;4994860;28;20046;-94
2023/10/12 07:13:25;;;;;;;0.20;0.20;;;;;;;;;;4995436;28;20042;-93
2023/10/12 07:15:51;;;;;;;0.20;0.20;;;;;;;;;;4977633;28;20050;-93
2023/10/12 07:18:18;;;;;;;0.10;0.10;;;;;;;;;;4977021;28;20061;-92
2023/10/12 07:20:48;;;;;;;0.10;0.10;;;;;;;;;;4978434;28;20046;-96
2023/10/12 07:23:15;;;;;;;0.20;0.20;;;;;;;;;;4979674;28;20046;-96
2023/10/12 07:25:51;;;;;;;0.10;0.10;;;;;;;;;;4978557;28;20054;-93
2023/10/12 07:28:35;;;;;;;0.20;0.20;;;;;;;;;;4978056;28;20106;-94
2023/10/12 07:33:52;;;;;;;0.10;0.10;;;;;;;;;;4994670;28;20050;-95
2023/10/12 07:36:18;;;;;;;0.20;0.20;;;;;;;;;;4976462;28;20038;-92
2023/10/12 07:39:13;;;;;;;0.30;0.30;;;;;;;;;;4976395;28;20488;-93
2023/10/12 07:41:53;;;;;;;0.10;0.10;;;;;;;;;;4991814;28;20030;-95
2023/10/12 07:44:20;;;;;;;0.10;0.10;;;;;;;;;;4972359;28;20035;-93
2023/10/12 07:46:46;;;;;;;0.20;0.20;;;;;;;;;;4981049;28;20141;-92
2023/10/12 07:49:57;;;;;;;0.20;0.20;;;;;;;;;;4988628;28;20491;-86
2023/10/12 07:54:47;;;;;;;0.20;0.20;;;;;;;;;;4988162;28;20053;-88
2023/10/12 07:57:17;;;;;;;0.20;0.20;;;;;;;;;;4968071;28;20058;-88
2023/10/12 08:08:33;;;;;;;0.20;0.20;;;;;;;;;;4970348;28;20047;-86
2023/10/12 08:21:17;;;;;;;0.20;0.20;;;;;;;;;;4975498;28;20046;-94
2023/10/12 08:24:05;;;;;;;0.20;0.20;;;;;;;;;;4994263;28;20070;-96
2023/10/12 08:32:15;;;;;;;0.17;0.17;;;;;;;;;;4991192;28;20061;-92
2023/10/12 08:38:11;;;;;;;0.20;0.20;;;;;;;;;;4983172;28;20050;-93
2023/10/12 08:40:54;;;;;;;0.23;0.23;;;;;;;;;;4978045;28;20073;-94
2023/10/12 08:43:42;;;;;;;0.20;0.20;;;;;;;;;;4977765;28;20066;-94
2023/10/12 08:46:10;;;;;;;0.20;0.20;;;;;;;;;;4976003;28;20053;-90
2023/10/12 08:48:42;;;;;;;0.22;0.22;;;;;;;;;;4990543;28;20077;-91
2023/10/12 08:51:16;;;;;;;0.10;0.10;;;;;;;;;;4976042;28;20051;-90
2023/10/12 08:53:45;;;;;;;0.10;0.10;;;;;;;;;;4990116;28;20074;-91
2023/10/12 08:56:11;;;;;;;0.20;0.20;;;;;;;;;;4991232;28;20054;-93
2023/10/12 08:58:46;;;;;;;0.10;0.10;;;;;;;;;;4989629;28;20035;-92
2023/10/12 09:01:31;;;;;;;0.13;0.13;;;;;;;;;;4984403;28;20459;-93
2023/10/12 09:04:03;;;;;;;0.20;0.20;;;;;;;;;;4972236;28;20077;-91
2023/10/12 09:07:03;;;;;;;0.30;0.30;;;;;;;;;;4971391;28;20046;-96
2023/10/12 09:09:49;;;;;;;0.20;0.20;;;;;;;;;;4963666;28;20054;-93
2023/10/12 09:12:19;;;;;;;0.20;0.20;;;;;;;;;;4987066;28;20046;-92
2023/10/12 09:14:46;;;;;;;0.20;0.20;;;;;;;;;;4988317;28;20053;-96
2023/10/12 09:17:32;;;;;;;0.15;0.15;;;;;;;;;;4986555;28;20050;-90
2023/10/12 09:20:26;;;;;;;0.25;0.25;;;;;;;;;;4954127;28;20057;-92
2023/10/12 09:23:11;;;;;;;0.20;0.20;;;;;;;;;;4962825;28;20049;-91
2023/10/12 09:28:26;;;;;;;0.10;0.10;;;;;;;;;;4975658;28;20050;-90
2023/10/12 09:31:09;;;;;;;0.20;0.20;;;;;;;;;;4976331;28;20046;-90
2023/10/12 09:33:54;;;;;;;0.20;0.20;;;;;;;;;;4968848;28;20098;-90
2023/10/12 09:36:22;;;;;;;0.30;0.30;;;;;;;;;;4974660;28;20122;-92
2023/10/12 09:38:48;;;;;;;0.10;0.10;;;;;;;;;;4972899;28;20305;-92
2023/10/12 09:41:16;;;;;;;0.10;0.10;;;;;;;;;;4977198;28;20182;-93
2023/10/12 09:43:53;;;;;;;0.25;0.25;;;;;;;;;;4960741;28;20061;-93
2023/10/12 09:46:24;;;;;;;0.30;0.30;;;;;;;;;;4958450;28;20038;-93
2023/10/12 09:48:57;;;;;;;0.10;0.10;;;;;;;;;;4971261;28;20046;-91
2023/10/12 09:51:25;;;;;;;0.20;0.20;;;;;;;;;;4987705;28;20098;-91
2023/10/12 09:53:59;;;;;;;0.20;0.20;;;;;;;;;;4987500;28;20042;-91
2023/10/12 09:56:33;;;;;;;0.20;0.20;;;;;;;;;;4988225;28;20039;-93
2023/10/12 09:59:08;;;;;;;0.20;0.20;;;;;;;;;;4989941;28;20294;-93
2023/10/12 10:05:01;;;;;;;0.30;0.30;;;;;;;;;;4987131;28;20053;-92
2023/10/12 10:07:15;;;;;;;0.20;0.20;;;;;;;;;;4980379;28;20141;-90
2023/10/12 10:09:50;;;;;;;0.30;0.30;;;;;;;;;;4986817;28;20053;-92
2023/10/12 10:12:17;;;;;;;0.22;0.22;;;;;;;;;;4987488;28;20023;-90
2023/10/12 10:14:45;;;;;;;0.22;0.22;;;;;;;;;;4986907;28;20038;-91
2023/10/12 10:17:16;;;;;;;0.20;0.20;;;;;;;;;;4968091;28;20042;-91
2023/10/12 10:19:51;;;;;;;0.20;0.20;;;;;;;;;;4968550;28;20046;-93
2023/10/12 10:22:18;;;;;;;;;;;;;;;;;;4988690;28;20045;-92
2023/10/12 10:24:50;;;;;;;0.30;0.30;;;;;;;;;;4968297;28;19971;-89
2023/10/12 10:27:34;;;;;;;0.17;0.17;;;;;;;;;;4974583;28;20038;-90
2023/10/12 10:30:13;;;;;;;0.10;0.10;;;;;;;;;;4973795;28;20421;-90
2023/10/12 10:32:39;;;;;;;0.25;0.25;;;;;;;;;;4986663;28;20042;-91
2023/10/12 10:35:18;;;;;;;0.13;0.13;;;;;;;;;;4986859;28;20053;-89
2023/10/12 10:37:59;;;;;;;0.20;0.20;;;;;;;;;;4939731;28;20039;-89
2023/10/12 10:40:52;;;;;;;0.20;0.20;;;;;;;;;;4970417;28;20137;-90
2023/10/12 10:43:16;;;;;;;0.20;0.20;;;;;;;;;;4986084;28;20058;-90
2023/10/12 10:45:53;;;;;;;0.10;0.10;;;;;;;;;;4973858;28;20044;-90
2023/10/12 10:48:20;;;;;;;0.20;0.20;;;;;;;;;;4968891;28;20046;-91
2023/10/12 10:50:49;;;;;;;0.20;0.20;;;;;;;;;;4986906;28;20129;-90
2023/10/12 10:53:18;;;;;;;0.15;0.15;;;;;;;;;;4987280;28;20034;-88
2023/10/12 10:55:47;;;;;;;0.20;0.20;;;;;;;;;;4986644;28;20335;-92
2023/10/12 10:58:18;;;;;;;0.30;0.30;;;;;;;;;;4987815;28;20117;-90
2023/10/12 11:00:56;;;;;;;0.13;0.13;;;;;;;;;;4988670;28;20054;-88
2023/10/12 11:03:22;;;;;;;0.10;0.10;;;;;;;;;;4989897;28;20081;-90
2023/10/12 11:05:48;;;;;;;0.30;0.30;;;;;;;;;;4988925;28;20045;-91
2023/10/12 11:08:26;;;;;;;0.28;0.28;;;;;;;;;;4990584;28;20046;-90
2023/10/12 11:13:38;;;;;;;0.20;0.20;;;;;;;;;;4988977;28;20074;-90
2023/10/12 11:16:51;;;;;;;0.20;0.20;;;;;;;;;;4981629;28;20436;-89
2023/10/12 11:18:54;;;;;;;0.22;0.22;;;;;;;;;;4966492;28;20069;-91
2023/10/12 11:21:21;;;;;;;0.20;0.20;;;;;;;;;;4983460;28;20039;-92
2023/10/12 11:23:50;;;;;;;0.10;0.10;;;;;;;;;;4974034;28;20485;-93
2023/10/12 11:26:18;;;;;;;0.20;0.20;;;;;;;;;;4979890;28;20046;-92
2023/10/12 11:28:48;;;;;;;0.30;0.30;;;;;;;;;;4989227;28;20039;-89
2023/10/12 11:31:20;;;;;;;0.20;0.20;;;;;;;;;;4968712;28;20455;-87
2023/10/12 11:33:50;;;;;;;0.30;0.30;;;;;;;;;;4969264;28;20049;-90
2023/10/12 11:36:32;;;;;;;0.17;0.17;;;;;;;;;;4961060;28;20073;-89
2023/10/12 11:39:21;;;;;;;0.20;0.20;;;;;;;;;;4990055;28;20042;-90
2023/10/12 11:42:06;;;;;;;0.10;0.10;;;;;;;;;;4962956;28;20043;-91
2023/10/12 11:44:42;;;;;;;0.25;0.25;;;;;;;;;;5003101;28;20105;-90
2023/10/12 11:47:28;;;;;;;0.15;0.15;;;;;;;;;;4993887;28;20050;-93
2023/10/12 11:49:56;;;;;;;0.20;0.20;;;;;;;;;;4960359;28;20057;-90
2023/10/12 11:52:32;;;;;;;0.20;0.20;;;;;;;;;;4956195;28;20041;-90
2023/10/12 11:55:18;;;;;;;0.20;0.20;;;;;;;;;;4982716;28;20038;-89
2023/10/12 11:57:58;;;;;;;0.20;0.20;;;;;;;;;;4987468;28;20039;-91
2023/10/12 12:00:44;;;;;;;0.10;0.10;;;;;;;;;;4979773;28;20041;-88
2023/10/12 12:03:11;;;;;;;0.20;0.20;;;;;;;;;;4957618;28;20967;-90
2023/10/12 12:05:43;;;;;;;0.20;0.20;;;;;;;;;;4971926;28;20075;-93
2023/10/12 12:08:18;;;;;;;0.25;0.25;;;;;;;;;;4975794;28;20539;-91
2023/10/12 12:10:46;;;;;;;0.10;0.10;;;;;;;;;;4990019;28;20048;-92
2023/10/12 12:13:15;;;;;;;0.20;0.20;;;;;;;;;;4980160;28;20042;-96
2023/10/12 12:15:44;;;;;;;0.10;0.10;;;;;;;;;;4980070;28;20106;-91
2023/10/12 12:18:17;;;;;;;0.10;0.10;;;;;;;;;;4955832;28;20050;-95
2023/10/12 12:20:52;;;;;;;0.30;0.30;;;;;;;;;;4956679;28;20043;-92
2023/10/12 12:23:19;;;;;;;0.20;0.20;;;;;;;;;;4991473;28;20042;-93
2023/10/12 12:25:46;;;;;;;0.30;0.30;;;;;;;;;;4996112;28;20046;-96
2023/10/12 12:28:16;;;;;;;0.10;0.10;;;;;;;;;;4993785;28;20038;-96
2023/10/12 12:31:17;;;;;;;0.20;0.20;;;;;;;;;;4995560;28;20140;-96
2023/10/12 12:33:43;;;;;;;0.20;0.20;;;;;;;;;;4991156;28;20072;-93
2023/10/12 12:36:12;;;;;;;0.20;0.20;;;;;;;;;;4980086;28;20067;-93
2023/10/12 12:38:52;;;;;;;0.20;0.20;;;;;;;;;;4988927;28;20070;-93
2023/10/12 12:41:25;;;;;;;0.20;0.20;;;;;;;;;;4987940;28;20091;-94
2023/10/12 12:43:52;;;;;;;0.10;0.10;;;;;;;;;;4969593;28;20042;-93
2023/10/12 12:46:29;;;;;;;0.20;0.20;;;;;;;;;;4974615;28;20053;-94
2023/10/12 12:48:55;;;;;;;0.17;0.17;;;;;;;;;;4990187;28;20075;-93
2023/10/12 12:51:22;;;;;;;0.10;0.10;;;;;;;;;;4988605;28;20396;-91
2023/10/12 12:54:02;;;;;;;0.15;0.15;;;;;;;;;;4986313;28;20047;-96
2023/10/12 12:56:31;;;;;;;0.30;0.30;;;;;;;;;;4979677;28;20042;-93
2023/10/12 12:59:15;;;;;;;0.20;0.20;;;;;;;;;;4988486;28;20449;-93
2023/10/12 13:01:45;;;;;;;0.20;0.20;;;;;;;;;;4991705;28;20026;-93
2023/10/12 13:07:28;;;;;;;0.20;0.20;;;;;;;;;;4993359;28;20081;-92
2023/10/12 13:10:02;;;;;;;0.10;0.10;;;;;;;;;;5007237;28;20038;-91
2023/10/12 13:13:12;;;;;;;0.10;0.10;;;;;;;;;;4992204;28;20045;-92
2023/10/12 13:15:49;;;;;;;0.30;0.30;;;;;;;;;;5597735;23;20446;-91
2023/10/12 13:18:50;;;;;;;0.20;0.20;;;;;;;;;;5048569;28;20363;-92
2023/10/12 13:21:17;;;;;;;0.10;0.10;;;;;;;;;;5015455;28;20037;-95
2023/10/12 13:23:46;;;;;;;0.20;0.20;;;;;;;;;;5016502;28;20037;-94
2023/10/12 13:26:22;;;;;;;0.20;0.20;;;;;;;;;;5015832;28;20033;-95
2023/10/12 13:28:51;;;;;;;0.20;0.20;;;;;;;;;;5017927;28;20509;-96
2023/10/12 13:31:17;;;;;;;0.30;0.30;;;;;;;;;;5033792;28;20109;-91
2023/10/12 13:33:43;;;;;;;0.25;0.25;;;;;;;;;;5019369;28;20038;-91
2023/10/12 13:36:09;;;;;;;0.17;0.17;;;;;;;;;;5015697;28;20053;-92
2023/10/12 13:38:52;;;;;;;0.10;0.10;;;;;;;;;;5015843;28;20051;-92
2023/10/12 13:41:20;;;;;;;0.30;0.30;;;;;;;;;;5015060;28;20041;-87
2023/10/12 13:43:48;;;;;;;0.20;0.20;;;;;;;;;;5028794;28;20041;-89
2023/10/12 13:46:15;;;;;;;0.20;0.20;;;;;;;;;;5035032;28;20230;-91
2023/10/12 13:48:41;;;;;;;0.10;0.10;;;;;;;;;;5033784;28;20045;-89
2023/10/12 13:51:20;;;;;;;0.30;0.30;;;;;;;;;;5034112;28;20044;-92
2023/10/12 13:53:46;;;;;;;0.20;0.20;;;;;;;;;;5035117;28;20191;-94
2023/10/12 15:19:49;;;;;;;0.10;0.10;;;;;;;;;;5034969;28;20080;-94
2023/10/12 15:22:15;;;;;;;0.13;0.13;;;;;;;;;;5019364;28;20041;-93
2023/10/12 15:24:47;;;;;;;0.20;0.20;;;;;;;;;;5019237;28;20069;-94
2023/10/12 15:27:13;;;;;;;0.20;0.20;;;;;;;;;;5018808;28;20050;-95
2023/10/12 15:29:39;;;;;;;0.20;0.20;;;;;;;;;;5018085;28;20033;-94
2023/10/12 15:32:05;;;;;;;0.30;0.30;;;;;;;;;;5016015;28;20056;-92
2023/10/12 15:34:31;;;;;;;0.10;0.10;;;;;;;;;;5018538;28;20041;-93
2023/10/12 15:37:01;;;;;;;0.20;0.20;;;;;;;;;;5018194;28;20038;-92
2023/10/12 15:39:27;;;;;;;0.20;0.20;;;;;;;;;;5016587;28;20034;-92
2023/10/12 15:41:53;;;;;;;0.20;0.20;;;;;;;;;;5018988;28;20045;-90
2023/10/12 15:44:19;;;;;;;0.40;0.40;;;;;;;;;;5018879;28;20045;-92
2023/10/12 15:46:45;;;;;;;0.30;0.30;;;;;;;;;;5018357;28;20041;-93
2023/10/12 15:49:12;;;;;;;0.30;0.30;;;;;;;;;;5017983;28;20103;-92
2023/10/12 15:52:01;;;;;;;0.10;0.10;;;;;;;;;;5016804;28;20079;-93
2023/10/12 15:54:27;;;;;;;0.30;0.30;;;;;;;;;;5018041;28;20037;-92
2023/10/12 15:56:56;;;;;;;0.30;0.30;;;;;;;;;;5015289;28;20046;-93
2023/10/12 15:59:25;;;;;;;0.20;0.20;;;;;;;;;;4998503;28;20101;-92
2023/10/12 16:02:00;;;;;;;0.30;0.30;;;;;;;;;;4999010;28;20057;-91
2023/10/12 16:04:26;;;;;;;;;;;;;;;;;;4999412;28;20038;-92
2023/10/12 16:06:52;;;;;;;0.17;0.17;;;;;;;;;;5001938;28;19917;-93
2023/10/12 16:09:24;;;;;;;0.30;0.30;;;;;;;;;;4999742;28;20037;-93
2023/10/12 16:11:51;;;;;;;0.30;0.30;;;;;;;;;;5005092;28;20060;-93
2023/10/12 16:14:17;;;;;;;0.30;0.30;;;;;;;;;;5004409;28;20033;-93
2023/10/12 16:16:44;;;;;;;0.35;0.35;;;;;;;;;;5017962;28;20104;-93
2023/10/12 16:19:12;;;;;;;0.32;0.32;;;;;;;;;;5016390;28;20040;-95
2023/10/12 16:21:38;;;;;;;0.13;0.13;;;;;;;;;;5014241;28;20120;-95
2023/10/12 16:24:06;;;;;;;0.20;0.20;;;;;;;;;;5008396;28;20045;-94
2023/10/12 16:26:32;;;;;;;0.20;0.20;;;;;;;;;;5018318;28;20060;-95
2023/10/12 16:29:01;;;;;;;0.20;0.20;;;;;;;;;;5018737;28;20105;-94
2023/10/12 16:31:37;;;;;;;0.10;0.10;;;;;;;;;;5018247;28;20069;-94
2023/10/12 16:34:06;;;;;;;0.20;0.20;;;;;;;;;;5017834;28;20096;-95
2023/10/12 16:36:32;;;;;;;0.20;0.20;;;;;;;;;;5007192;28;20088;-94
2023/10/12 16:38:59;;;;;;;0.30;0.30;;;;;;;;;;5014402;28;20044;-93
2023/10/12 16:41:26;;;;;;;0.20;0.20;;;;;;;;;;4998114;28;20049;-93
2023/10/12 16:43:52;;;;;;;0.30;0.30;;;;;;;;;;5007377;28;20136;-94
2023/10/12 16:46:21;;;;;;;0.30;0.30;;;;;;;;;;5003337;28;20034;-95
2023/10/12 16:48:48;;;;;;;0.20;0.20;;;;;;;;;;5010685;28;20096;-94
2023/10/12 16:51:15;;;;;;;0.20;0.20;;;;;;;;;;4997949;28;20069;-95
2023/10/12 16:53:42;;;;;;;0.20;0.20;;;;;;;;;;4997956;28;20050;-94
2023/10/12 16:56:20;;;;;;;0.20;0.20;;;;;;;;;;5006777;28;20095;-95
2023/10/12 16:58:46;;;;;;;0.40;0.40;;;;;;;;;;5015392;28;20045;-94
2023/10/12 17:01:16;;;;;;;0.25;0.25;;;;;;;;;;5009231;28;20038;-95
2023/10/12 17:03:48;;;;;;;0.30;0.30;;;;;;;;;;5016143;28;20029;-93
2023/10/12 17:06:28;;;;;;;0.30;0.30;;;;;;;;;;5014960;28;20045;-93
2023/10/12 17:08:54;;;;;;;0.40;0.40;;;;;;;;;;5005468;28;20041;-94
2023/10/12 17:11:20;;;;;;;0.17;0.17;;;;;;;;;;5010886;28;20072;-94
2023/10/12 17:13:46;;;;;;;0.20;0.20;;;;;;;;;;5005082;28;20046;-95
2023/10/12 17:16:12;;;;;;;0.13;0.13;;;;;;;;;;5006770;28;20041;-95
2023/10/12 17:18:38;;;;;;;0.30;0.30;;;;;;;;;;5014310;28;20040;-94
2023/10/12 17:21:04;;;;;;;0.30;0.30;;;;;;;;;;5012758;28;20049;-94
2023/10/12 17:23:33;;;;;;;0.20;0.20;;;;;;;;;;5011597;28;20045;-95
2023/10/12 17:25:59;;;;;;;0.25;0.25;;;;;;;;;;5009408;28;20491;-94
2023/10/12 17:28:29;;;;;;;0.22;0.22;;;;;;;;;;5011210;28;20440;-95
2023/10/12 17:30:55;;;;;;;0.20;0.20;;;;;;;;;;5006281;28;20096;-95
2023/10/12 17:33:22;;;;;;;0.30;0.30;;;;;;;;;;5011700;28;20041;-94
2023/10/12 17:35:48;;;;;;;0.20;0.20;;;;;;;;;;5003054;28;20038;-94
2023/10/12 17:38:14;;;;;;;0.20;0.20;;;;;;;;;;5013828;28;20033;-94
2023/10/12 17:40:40;;;;;;;0.30;0.30;;;;;;;;;;5010697;28;20061;-94
2023/10/12 17:43:09;;;;;;;0.20;0.20;;;;;;;;;;4998699;28;20049;-91
2023/10/12 17:45:36;;;;;;;0.30;0.30;;;;;;;;;;4994919;28;20046;-95
2023/10/12 17:48:03;;;;;;;0.20;0.20;;;;;;;;;;5012128;28;20049;-93
2023/10/12 17:50:34;;;;;;;0.20;0.20;;;;;;;;;;4999249;28;20042;-93
2023/10/12 17:53:02;;;;;;;0.10;0.10;;;;;;;;;;5006717;28;20042;-94
2023/10/12 17:55:28;;;;;;;0.10;0.10;;;;;;;;;;5011441;28;20064;-92
2023/10/12 17:57:58;;;;;;;0.20;0.20;;;;;;;;;;5013579;28;20038;-93
2023/10/12 18:00:27;;;;;;;0.20;0.20;;;;;;;;;;5030019;28;20091;-93
2023/10/12 18:02:53;;;;;;;0.10;0.10;;;;;;;;;;5012973;28;20092;-93
2023/10/12 18:05:20;;;;;;;0.10;0.10;;;;;;;;;;5010515;28;20048;-93
2023/10/12 18:07:47;;;;;;;0.10;0.10;;;;;;;;;;4994345;28;20060;-93
2023/10/12 18:10:15;;;;;;;0.30;0.30;;;;;;;;;;5023263;28;20045;-92
2023/10/12 18:12:41;;;;;;;0.20;0.20;;;;;;;;;;5010639;28;20506;-92
2023/10/12 18:15:09;;;;;;;0.10;0.10;;;;;;;;;;5023374;28;20072;-92
2023/10/12 18:17:35;;;;;;;0.20;0.20;;;;;;;;;;5024458;28;20040;-93
2023/10/12 18:20:04;;;;;;;0.30;0.30;;;;;;;;;;5010081;28;20030;-92
2023/10/12 18:22:32;;;;;;;0.20;0.20;;;;;;;;;;4991900;28;20042;-93
2023/10/12 18:25:09;;;;;;;0.10;0.10;;;;;;;;;;4996557;28;20069;-93
2023/10/12 18:27:35;;;;;;;0.30;0.30;;;;;;;;;;4993758;28;20069;-92
2023/10/12 18:30:18;;;;;;;0.20;0.20;;;;;;;;;;4995133;28;20045;-93
2023/10/12 18:32:48;;;;;;;0.13;0.13;;;;;;;;;;5009224;28;20074;-92
2023/10/12 18:35:14;;;;;;;0.10;0.10;;;;;;;;;;5011190;28;20057;-93
2023/10/12 18:37:40;;;;;;;0.20;0.20;;;;;;;;;;5013944;28;20042;-93